sensor_id;sensor_type;location;lat;lon;timestamp;temperature;humidity
14786;DHT22;7484;49.906;9.058;2023-06-05T00:01:58;14.20;99.90
14786;DHT22;7484;49.906;9.058;2023-06-05T00:04:26;14.30;99.90
14786;DHT22;7484;49.906;9.058;2023-06-05T00:06:53;14.00;99.90
14786;DHT22;7484;49.906;9.058;2023-06-05T00:09:20;13.70;99.90
14786;DHT22;7484;49.906;9.058;2023-06-05T00:11:46;13.80;99.90
14786;DHT22;7484;49.906;9.058;2023-06-05T00:14:13;13.60;99.90
14786;DHT22;7484;49.906;9.058;2023-06-05T00:16:40;13.70;99.90
14786;DHT22;7484;49.906;9.058;2023-06-05T00:19:07;13.90;99.90
14786;DHT22;7484;49.906;9.058;2023-06-05T00:21:35;14.00;99.90
14786;DHT22;7484;49.906;9.058;2023-06-05T00:24:02;14.00;99.90
14786;DHT22;7484;49.906;9.058;2023-06-05T00:26:29;13.70;99.90
14786;DHT22;7484;49.906;9.058;2023-06-05T00:28:55;13.30;99.90
14786;DHT22;7484;49.906;9.058;2023-06-05T00:31:22;13.10;99.90
14786;DHT22;7484;49.906;9.058;2023-06-05T00:33:49;13.20;99.90
14786;DHT22;7484;49.906;9.058;2023-06-05T00:36:17;13.00;99.90
14786;DHT22;7484;49.906;9.058;2023-06-05T00:38:45;12.80;99.90
14786;DHT22;7484;49.906;9.058;2023-06-05T00:41:12;12.70;99.90
14786;DHT22;7484;49.906;9.058;2023-06-05T00:43:39;13.00;99.90
14786;DHT22;7484;49.906;9.058;2023-06-05T00:46:05;13.10;99.90
14786;DHT22;7484;49.906;9.058;2023-06-05T00:48:33;12.90;99.90
14786;DHT22;7484;49.906;9.058;2023-06-05T00:51:00;13.10;99.90
14786;DHT22;7484;49.906;9.058;2023-06-05T00:53:27;13.20;99.90
14786;DHT22;7484;49.906;9.058;2023-06-05T00:55:58;13.30;99.90
14786;DHT22;7484;49.906;9.058;2023-06-05T00:58:26;13.30;99.90
14786;DHT22;7484;49.906;9.058;2023-06-05T01:00:53;13.30;99.90
14786;DHT22;7484;49.906;9.058;2023-06-05T01:03:21;13.30;99.90
14786;DHT22;7484;49.906;9.058;2023-06-05T01:05:50;13.10;99.90
14786;DHT22;7484;49.906;9.058;2023-06-05T01:08:17;13.00;99.90
14786;DHT22;7484;49.906;9.058;2023-06-05T01:10:51;13.00;99.90
14786;DHT22;7484;49.906;9.058;2023-06-05T01:13:23;13.00;99.90
14786;DHT22;7484;49.906;9.058;2023-06-05T01:15:51;12.90;99.90
14786;DHT22;7484;49.906;9.058;2023-06-05T01:18:20;12.40;99.90
14786;DHT22;7484;49.906;9.058;2023-06-05T01:20:49;12.40;99.90
14786;DHT22;7484;49.906;9.058;2023-06-05T01:23:18;12.30;99.90
14786;DHT22;7484;49.906;9.058;2023-06-05T01:25:51;12.10;99.90
14786;DHT22;7484;49.906;9.058;2023-06-05T01:28:23;12.00;99.90
14786;DHT22;7484;49.906;9.058;2023-06-05T01:30:56;11.80;99.90
14786;DHT22;7484;49.906;9.058;2023-06-05T01:33:30;11.80;99.90
14786;DHT22;7484;49.906;9.058;2023-06-05T01:36:01;12.10;99.90
14786;DHT22;7484;49.906;9.058;2023-06-05T01:38:33;12.20;99.90
14786;DHT22;7484;49.906;9.058;2023-06-05T01:41:02;12.00;99.90
14786;DHT22;7484;49.906;9.058;2023-06-05T01:43:29;12.00;99.90
14786;DHT22;7484;49.906;9.058;2023-06-05T01:45:57;12.00;99.90
14786;DHT22;7484;49.906;9.058;2023-06-05T01:48:26;12.20;99.90
14786;DHT22;7484;49.906;9.058;2023-06-05T01:50:55;12.20;99.90
14786;DHT22;7484;49.906;9.058;2023-06-05T01:53:22;12.10;99.90
14786;DHT22;7484;49.906;9.058;2023-06-05T01:55:50;12.00;99.90
14786;DHT22;7484;49.906;9.058;2023-06-05T01:58:20;11.70;99.90
14786;DHT22;7484;49.906;9.058;2023-06-05T02:00:47;11.50;99.90
14786;DHT22;7484;49.906;9.058;2023-06-05T02:03:14;11.40;99.90
14786;DHT22;7484;49.906;9.058;2023-06-05T02:05:41;11.30;99.90
14786;DHT22;7484;49.906;9.058;2023-06-05T02:08:08;11.30;99.90
14786;DHT22;7484;49.906;9.058;2023-06-05T02:10:36;11.50;99.90
14786;DHT22;7484;49.906;9.058;2023-06-05T02:13:07;11.70;99.90
14786;DHT22;7484;49.906;9.058;2023-06-05T02:15:34;12.00;99.90
14786;DHT22;7484;49.906;9.058;2023-06-05T02:18:01;12.10;99.90
14786;DHT22;7484;49.906;9.058;2023-06-05T02:20:29;12.00;99.90
14786;DHT22;7484;49.906;9.058;2023-06-05T02:22:56;11.70;99.90
14786;DHT22;7484;49.906;9.058;2023-06-05T02:25:24;11.60;99.90
14786;DHT22;7484;49.906;9.058;2023-06-05T02:27:51;11.50;99.90
14786;DHT22;7484;49.906;9.058;2023-06-05T02:30:19;11.30;99.90
14786;DHT22;7484;49.906;9.058;2023-06-05T02:32:46;11.30;99.90
14786;DHT22;7484;49.906;9.058;2023-06-05T02:35:15;11.30;99.90
14786;DHT22;7484;49.906;9.058;2023-06-05T02:37:42;11.40;99.90
14786;DHT22;7484;49.906;9.058;2023-06-05T02:40:11;11.40;99.90
14786;DHT22;7484;49.906;9.058;2023-06-05T02:42:39;11.30;99.90
14786;DHT22;7484;49.906;9.058;2023-06-05T02:45:07;11.40;99.90
14786;DHT22;7484;49.906;9.058;2023-06-05T02:47:35;11.50;99.90
14786;DHT22;7484;49.906;9.058;2023-06-05T02:50:02;11.50;99.90
14786;DHT22;7484;49.906;9.058;2023-06-05T02:52:33;11.40;99.90
14786;DHT22;7484;49.906;9.058;2023-06-05T02:55:04;11.40;99.90
14786;DHT22;7484;49.906;9.058;2023-06-05T02:57:32;11.50;99.90
14786;DHT22;7484;49.906;9.058;2023-06-05T03:00:00;11.60;99.90
14786;DHT22;7484;49.906;9.058;2023-06-05T03:02:37;11.30;99.90
14786;DHT22;7484;49.906;9.058;2023-06-05T03:05:05;11.20;99.90
14786;DHT22;7484;49.906;9.058;2023-06-05T03:07:33;11.00;99.90
14786;DHT22;7484;49.906;9.058;2023-06-05T03:10:04;11.00;99.90
14786;DHT22;7484;49.906;9.058;2023-06-05T03:12:32;11.00;99.90
14786;DHT22;7484;49.906;9.058;2023-06-05T03:15:00;10.90;99.90
14786;DHT22;7484;49.906;9.058;2023-06-05T03:17:30;10.90;99.90
14786;DHT22;7484;49.906;9.058;2023-06-05T03:19:59;10.80;99.90
14786;DHT22;7484;49.906;9.058;2023-06-05T03:22:25;10.70;99.90
14786;DHT22;7484;49.906;9.058;2023-06-05T03:24:52;10.70;99.90
14786;DHT22;7484;49.906;9.058;2023-06-05T03:27:19;10.70;99.90
14786;DHT22;7484;49.906;9.058;2023-06-05T03:29:46;10.70;99.90
14786;DHT22;7484;49.906;9.058;2023-06-05T03:32:14;10.70;99.90
14786;DHT22;7484;49.906;9.058;2023-06-05T03:34:43;10.60;99.90
14786;DHT22;7484;49.906;9.058;2023-06-05T03:37:15;10.60;99.90
14786;DHT22;7484;49.906;9.058;2023-06-05T03:39:44;10.70;99.90
14786;DHT22;7484;49.906;9.058;2023-06-05T03:42:11;10.70;99.90
14786;DHT22;7484;49.906;9.058;2023-06-05T03:44:38;10.70;99.90
14786;DHT22;7484;49.906;9.058;2023-06-05T03:47:06;10.60;99.90
14786;DHT22;7484;49.906;9.058;2023-06-05T03:49:33;10.70;99.90
14786;DHT22;7484;49.906;9.058;2023-06-05T03:52:01;10.70;99.90
14786;DHT22;7484;49.906;9.058;2023-06-05T03:54:29;10.80;99.90
14786;DHT22;7484;49.906;9.058;2023-06-05T03:56:58;10.80;99.90
14786;DHT22;7484;49.906;9.058;2023-06-05T03:59:26;10.70;99.90
14786;DHT22;7484;49.906;9.058;2023-06-05T04:01:58;10.80;99.90
14786;DHT22;7484;49.906;9.058;2023-06-05T04:04:25;10.90;99.90
14786;DHT22;7484;49.906;9.058;2023-06-05T04:06:54;11.00;99.90
14786;DHT22;7484;49.906;9.058;2023-06-05T04:09:22;10.90;99.90
14786;DHT22;7484;49.906;9.058;2023-06-05T04:11:50;10.90;99.90
14786;DHT22;7484;49.906;9.058;2023-06-05T04:14:18;10.80;99.90
14786;DHT22;7484;49.906;9.058;2023-06-05T04:16:45;10.80;99.90
14786;DHT22;7484;49.906;9.058;2023-06-05T04:19:19;10.80;99.90
14786;DHT22;7484;49.906;9.058;2023-06-05T04:21:49;10.80;99.90
14786;DHT22;7484;49.906;9.058;2023-06-05T04:24:16;10.80;99.90
14786;DHT22;7484;49.906;9.058;2023-06-05T04:26:43;10.80;99.90
14786;DHT22;7484;49.906;9.058;2023-06-05T04:29:12;10.80;99.90
14786;DHT22;7484;49.906;9.058;2023-06-05T04:31:41;10.70;99.90
14786;DHT22;7484;49.906;9.058;2023-06-05T04:34:08;10.80;99.90
14786;DHT22;7484;49.906;9.058;2023-06-05T04:36:35;10.90;99.90
14786;DHT22;7484;49.906;9.058;2023-06-05T04:39:03;11.00;99.90
14786;DHT22;7484;49.906;9.058;2023-06-05T04:41:32;11.20;99.90
14786;DHT22;7484;49.906;9.058;2023-06-05T04:44:03;11.30;99.90
14786;DHT22;7484;49.906;9.058;2023-06-05T04:46:32;11.40;99.90
14786;DHT22;7484;49.906;9.058;2023-06-05T04:48:59;11.50;99.90
14786;DHT22;7484;49.906;9.058;2023-06-05T04:51:26;11.60;99.90
14786;DHT22;7484;49.906;9.058;2023-06-05T04:53:53;11.60;99.90
14786;DHT22;7484;49.906;9.058;2023-06-05T04:56:23;11.80;99.90
14786;DHT22;7484;49.906;9.058;2023-06-05T04:58:50;12.00;99.90
14786;DHT22;7484;49.906;9.058;2023-06-05T05:01:19;12.20;99.90
14786;DHT22;7484;49.906;9.058;2023-06-05T05:03:47;12.40;99.90
14786;DHT22;7484;49.906;9.058;2023-06-05T05:06:16;12.70;99.90
14786;DHT22;7484;49.906;9.058;2023-06-05T05:08:43;12.90;99.90
14786;DHT22;7484;49.906;9.058;2023-06-05T05:11:12;13.00;99.90
14786;DHT22;7484;49.906;9.058;2023-06-05T05:13:40;13.00;99.90
14786;DHT22;7484;49.906;9.058;2023-06-05T05:16:07;13.00;99.90
14786;DHT22;7484;49.906;9.058;2023-06-05T05:18:34;13.20;99.90
14786;DHT22;7484;49.906;9.058;2023-06-05T05:21:04;13.30;99.90
14786;DHT22;7484;49.906;9.058;2023-06-05T05:23:32;13.40;99.90
14786;DHT22;7484;49.906;9.058;2023-06-05T05:26:00;13.50;99.90
14786;DHT22;7484;49.906;9.058;2023-06-05T05:28:27;13.70;99.90
14786;DHT22;7484;49.906;9.058;2023-06-05T05:30:54;13.90;99.90
14786;DHT22;7484;49.906;9.058;2023-06-05T05:33:23;14.00;99.90
14786;DHT22;7484;49.906;9.058;2023-06-05T05:35:50;14.20;99.90
14786;DHT22;7484;49.906;9.058;2023-06-05T05:38:19;14.40;99.90
14786;DHT22;7484;49.906;9.058;2023-06-05T05:40:46;14.60;99.90
14786;DHT22;7484;49.906;9.058;2023-06-05T05:43:12;14.80;99.90
14786;DHT22;7484;49.906;9.058;2023-06-05T05:45:39;15.20;99.90
14786;DHT22;7484;49.906;9.058;2023-06-05T05:48:07;15.50;99.90
14786;DHT22;7484;49.906;9.058;2023-06-05T05:50:34;15.80;99.90
14786;DHT22;7484;49.906;9.058;2023-06-05T05:53:02;16.10;99.90
14786;DHT22;7484;49.906;9.058;2023-06-05T05:55:30;16.40;99.90
14786;DHT22;7484;49.906;9.058;2023-06-05T05:57:57;16.60;99.80
14786;DHT22;7484;49.906;9.058;2023-06-05T06:00:23;16.80;99.40
14786;DHT22;7484;49.906;9.058;2023-06-05T06:02:50;17.10;99.40
14786;DHT22;7484;49.906;9.058;2023-06-05T06:05:18;17.20;98.50
14786;DHT22;7484;49.906;9.058;2023-06-05T06:07:45;17.50;98.10
14786;DHT22;7484;49.906;9.058;2023-06-05T06:10:13;17.70;97.40
14786;DHT22;7484;49.906;9.058;2023-06-05T06:12:41;17.70;96.20
14786;DHT22;7484;49.906;9.058;2023-06-05T06:15:08;17.70;95.60
14786;DHT22;7484;49.906;9.058;2023-06-05T06:17:35;17.50;96.40
14786;DHT22;7484;49.906;9.058;2023-06-05T06:20:02;17.40;96.90
14786;DHT22;7484;49.906;9.058;2023-06-05T06:22:29;17.70;96.90
14786;DHT22;7484;49.906;9.058;2023-06-05T06:24:56;18.00;96.50
14786;DHT22;7484;49.906;9.058;2023-06-05T06:27:23;18.30;96.30
14786;DHT22;7484;49.906;9.058;2023-06-05T06:29:51;18.50;96.50
14786;DHT22;7484;49.906;9.058;2023-06-05T06:32:18;18.70;95.20
14786;DHT22;7484;49.906;9.058;2023-06-05T06:34:45;18.70;94.10
14786;DHT22;7484;49.906;9.058;2023-06-05T06:37:12;18.70;94.10
14786;DHT22;7484;49.906;9.058;2023-06-05T06:39:40;18.80;94.90
14786;DHT22;7484;49.906;9.058;2023-06-05T06:42:08;19.00;94.30
14786;DHT22;7484;49.906;9.058;2023-06-05T06:44:38;19.10;94.30
14786;DHT22;7484;49.906;9.058;2023-06-05T06:47:07;19.20;93.80
14786;DHT22;7484;49.906;9.058;2023-06-05T06:49:34;19.30;93.60
14786;DHT22;7484;49.906;9.058;2023-06-05T06:52:01;19.40;93.40
14786;DHT22;7484;49.906;9.058;2023-06-05T06:54:28;19.50;93.10
14786;DHT22;7484;49.906;9.058;2023-06-05T06:56:55;19.60;92.80
14786;DHT22;7484;49.906;9.058;2023-06-05T06:59:22;19.80;92.90
14786;DHT22;7484;49.906;9.058;2023-06-05T07:02:11;19.80;92.50
14786;DHT22;7484;49.906;9.058;2023-06-05T07:04:39;19.90;92.40
14786;DHT22;7484;49.906;9.058;2023-06-05T07:07:08;19.90;92.10
14786;DHT22;7484;49.906;9.058;2023-06-05T07:09:36;19.90;92.10
14786;DHT22;7484;49.906;9.058;2023-06-05T07:12:03;20.10;91.70
14786;DHT22;7484;49.906;9.058;2023-06-05T07:14:31;20.10;91.20
14786;DHT22;7484;49.906;9.058;2023-06-05T07:16:59;20.20;90.50
14786;DHT22;7484;49.906;9.058;2023-06-05T07:19:27;20.30;88.20
14786;DHT22;7484;49.906;9.058;2023-06-05T07:21:55;20.40;87.70
14786;DHT22;7484;49.906;9.058;2023-06-05T07:24:22;20.30;87.10
14786;DHT22;7484;49.906;9.058;2023-06-05T07:26:51;20.30;88.20
14786;DHT22;7484;49.906;9.058;2023-06-05T07:29:18;20.70;87.50
14786;DHT22;7484;49.906;9.058;2023-06-05T07:31:46;21.00;87.30
14786;DHT22;7484;49.906;9.058;2023-06-05T07:34:13;21.10;86.20
14786;DHT22;7484;49.906;9.058;2023-06-05T07:36:43;21.20;85.90
14786;DHT22;7484;49.906;9.058;2023-06-05T07:39:10;21.30;86.90
14786;DHT22;7484;49.906;9.058;2023-06-05T07:41:37;21.50;85.60
14786;DHT22;7484;49.906;9.058;2023-06-05T07:44:05;21.40;85.90
14786;DHT22;7484;49.906;9.058;2023-06-05T07:46:32;21.60;85.70
14786;DHT22;7484;49.906;9.058;2023-06-05T07:48:59;21.80;83.90
14786;DHT22;7484;49.906;9.058;2023-06-05T07:51:26;21.90;83.50
14786;DHT22;7484;49.906;9.058;2023-06-05T07:53:54;22.00;83.20
14786;DHT22;7484;49.906;9.058;2023-06-05T07:56:20;21.90;83.60
14786;DHT22;7484;49.906;9.058;2023-06-05T07:58:49;22.10;83.70
14786;DHT22;7484;49.906;9.058;2023-06-05T08:01:17;22.30;82.50
14786;DHT22;7484;49.906;9.058;2023-06-05T08:03:46;22.30;82.00
14786;DHT22;7484;49.906;9.058;2023-06-05T08:06:13;22.70;82.60
14786;DHT22;7484;49.906;9.058;2023-06-05T08:08:40;22.90;83.90
14786;DHT22;7484;49.906;9.058;2023-06-05T08:11:08;22.80;80.10
14786;DHT22;7484;49.906;9.058;2023-06-05T08:13:36;22.90;80.70
14786;DHT22;7484;49.906;9.058;2023-06-05T08:16:03;23.00;79.90
14786;DHT22;7484;49.906;9.058;2023-06-05T08:18:30;23.00;80.60
14786;DHT22;7484;49.906;9.058;2023-06-05T08:20:57;23.20;80.30
14786;DHT22;7484;49.906;9.058;2023-06-05T08:23:23;23.40;78.90
14786;DHT22;7484;49.906;9.058;2023-06-05T08:25:51;23.60;79.40
14786;DHT22;7484;49.906;9.058;2023-06-05T08:28:20;23.70;78.90
14786;DHT22;7484;49.906;9.058;2023-06-05T08:30:47;23.90;75.80
14786;DHT22;7484;49.906;9.058;2023-06-05T08:33:13;24.00;75.80
14786;DHT22;7484;49.906;9.058;2023-06-05T08:35:41;24.10;76.50
14786;DHT22;7484;49.906;9.058;2023-06-05T08:38:08;24.00;77.60
14786;DHT22;7484;49.906;9.058;2023-06-05T08:40:34;24.10;77.90
14786;DHT22;7484;49.906;9.058;2023-06-05T08:43:02;24.10;77.50
14786;DHT22;7484;49.906;9.058;2023-06-05T08:45:30;24.30;76.70
14786;DHT22;7484;49.906;9.058;2023-06-05T08:47:59;24.40;76.20
14786;DHT22;7484;49.906;9.058;2023-06-05T08:50:28;24.50;75.60
14786;DHT22;7484;49.906;9.058;2023-06-05T08:52:56;24.40;76.20
14786;DHT22;7484;49.906;9.058;2023-06-05T08:55:24;24.40;75.70
14786;DHT22;7484;49.906;9.058;2023-06-05T08:57:52;24.50;74.70
14786;DHT22;7484;49.906;9.058;2023-06-05T09:00:19;24.70;75.70
14786;DHT22;7484;49.906;9.058;2023-06-05T09:02:47;25.00;75.70
14786;DHT22;7484;49.906;9.058;2023-06-05T09:05:14;25.20;74.90
14786;DHT22;7484;49.906;9.058;2023-06-05T09:07:41;25.30;72.90
14786;DHT22;7484;49.906;9.058;2023-06-05T09:10:21;25.40;73.20
14786;DHT22;7484;49.906;9.058;2023-06-05T09:12:55;25.30;71.70
14786;DHT22;7484;49.906;9.058;2023-06-05T09:15:23;25.40;71.30
14786;DHT22;7484;49.906;9.058;2023-06-05T09:18:05;25.60;69.00
14786;DHT22;7484;49.906;9.058;2023-06-05T09:20:34;25.70;67.10
14786;DHT22;7484;49.906;9.058;2023-06-05T09:23:02;25.60;66.00
14786;DHT22;7484;49.906;9.058;2023-06-05T09:25:44;25.70;64.40
14786;DHT22;7484;49.906;9.058;2023-06-05T09:28:14;25.70;66.50
14786;DHT22;7484;49.906;9.058;2023-06-05T09:30:54;25.60;66.10
14786;DHT22;7484;49.906;9.058;2023-06-05T09:33:23;25.90;66.00
14786;DHT22;7484;49.906;9.058;2023-06-05T09:36:07;26.20;65.30
14786;DHT22;7484;49.906;9.058;2023-06-05T09:38:34;26.60;63.00
14786;DHT22;7484;49.906;9.058;2023-06-05T09:41:02;26.80;61.70
14786;DHT22;7484;49.906;9.058;2023-06-05T09:43:29;26.90;60.80
14786;DHT22;7484;49.906;9.058;2023-06-05T09:45:56;26.90;59.10
14786;DHT22;7484;49.906;9.058;2023-06-05T09:48:24;26.80;59.70
14786;DHT22;7484;49.906;9.058;2023-06-05T09:50:52;26.70;59.20
14786;DHT22;7484;49.906;9.058;2023-06-05T09:53:20;26.80;60.10
14786;DHT22;7484;49.906;9.058;2023-06-05T09:55:47;26.90;59.20
14786;DHT22;7484;49.906;9.058;2023-06-05T09:58:16;26.70;59.30
14786;DHT22;7484;49.906;9.058;2023-06-05T10:00:44;26.80;59.30
14786;DHT22;7484;49.906;9.058;2023-06-05T10:03:14;26.90;58.90
14786;DHT22;7484;49.906;9.058;2023-06-05T10:05:44;27.00;56.70
14786;DHT22;7484;49.906;9.058;2023-06-05T10:08:11;27.20;57.40
14786;DHT22;7484;49.906;9.058;2023-06-05T10:10:39;27.20;55.50
14786;DHT22;7484;49.906;9.058;2023-06-05T10:13:07;27.20;55.80
14786;DHT22;7484;49.906;9.058;2023-06-05T10:15:36;26.80;53.00
14786;DHT22;7484;49.906;9.058;2023-06-05T10:18:04;26.80;54.60
14786;DHT22;7484;49.906;9.058;2023-06-05T10:20:34;27.00;54.80
14786;DHT22;7484;49.906;9.058;2023-06-05T10:23:04;27.40;53.60
14786;DHT22;7484;49.906;9.058;2023-06-05T10:25:33;27.60;52.80
14786;DHT22;7484;49.906;9.058;2023-06-05T10:28:29;27.70;51.90
14786;DHT22;7484;49.906;9.058;2023-06-05T10:31:13;27.70;51.90
14786;DHT22;7484;49.906;9.058;2023-06-05T10:33:51;27.60;52.20
14786;DHT22;7484;49.906;9.058;2023-06-05T10:36:37;27.60;51.00
14786;DHT22;7484;49.906;9.058;2023-06-05T10:39:08;27.80;52.10
14786;DHT22;7484;49.906;9.058;2023-06-05T10:41:36;27.90;51.00
14786;DHT22;7484;49.906;9.058;2023-06-05T10:44:03;27.80;49.80
14786;DHT22;7484;49.906;9.058;2023-06-05T10:46:31;27.80;49.70
14786;DHT22;7484;49.906;9.058;2023-06-05T10:49:11;27.80;50.20
14786;DHT22;7484;49.906;9.058;2023-06-05T10:51:42;27.90;50.70
14786;DHT22;7484;49.906;9.058;2023-06-05T10:54:12;27.90;50.40
14786;DHT22;7484;49.906;9.058;2023-06-05T10:56:57;28.00;49.40
14786;DHT22;7484;49.906;9.058;2023-06-05T10:59:26;28.10;51.50
14786;DHT22;7484;49.906;9.058;2023-06-05T11:02:24;28.20;49.40
14786;DHT22;7484;49.906;9.058;2023-06-05T11:05:04;28.10;50.40
14786;DHT22;7484;49.906;9.058;2023-06-05T11:07:31;28.20;50.40
14786;DHT22;7484;49.906;9.058;2023-06-05T11:10:10;28.30;49.40
14786;DHT22;7484;49.906;9.058;2023-06-05T11:12:56;28.20;49.70
14786;DHT22;7484;49.906;9.058;2023-06-05T11:15:42;28.20;49.20
14786;DHT22;7484;49.906;9.058;2023-06-05T11:18:31;28.50;49.90
14786;DHT22;7484;49.906;9.058;2023-06-05T11:20:59;28.80;48.90
14786;DHT22;7484;49.906;9.058;2023-06-05T11:23:27;29.00;49.20
14786;DHT22;7484;49.906;9.058;2023-06-05T11:25:58;29.10;48.90
14786;DHT22;7484;49.906;9.058;2023-06-05T11:28:44;29.10;48.70
14786;DHT22;7484;49.906;9.058;2023-06-05T11:31:11;29.10;48.30
14786;DHT22;7484;49.906;9.058;2023-06-05T11:33:38;29.00;49.00
14786;DHT22;7484;49.906;9.058;2023-06-05T11:36:06;28.60;48.60
14786;DHT22;7484;49.906;9.058;2023-06-05T11:38:34;28.20;49.80
14786;DHT22;7484;49.906;9.058;2023-06-05T11:41:07;28.50;48.00
14786;DHT22;7484;49.906;9.058;2023-06-05T11:43:41;28.80;48.70
14786;DHT22;7484;49.906;9.058;2023-06-05T11:46:08;29.10;47.70
14786;DHT22;7484;49.906;9.058;2023-06-05T11:48:42;29.20;47.40
14786;DHT22;7484;49.906;9.058;2023-06-05T11:51:09;29.10;46.30
14786;DHT22;7484;49.906;9.058;2023-06-05T11:53:42;29.10;46.40
14786;DHT22;7484;49.906;9.058;2023-06-05T11:56:13;29.10;46.10
14786;DHT22;7484;49.906;9.058;2023-06-05T11:58:42;28.60;46.00
14786;DHT22;7484;49.906;9.058;2023-06-05T12:01:12;29.00;46.80
14786;DHT22;7484;49.906;9.058;2023-06-05T12:03:41;29.40;45.90
14786;DHT22;7484;49.906;9.058;2023-06-05T12:06:08;29.60;46.20
14786;DHT22;7484;49.906;9.058;2023-06-05T12:08:35;29.60;45.80
14786;DHT22;7484;49.906;9.058;2023-06-05T12:11:03;29.80;45.70
14786;DHT22;7484;49.906;9.058;2023-06-05T12:13:47;29.70;46.00
14786;DHT22;7484;49.906;9.058;2023-06-05T12:16:14;29.50;45.70
14786;DHT22;7484;49.906;9.058;2023-06-05T12:18:42;29.20;45.80
14786;DHT22;7484;49.906;9.058;2023-06-05T12:21:19;29.30;45.00
14786;DHT22;7484;49.906;9.058;2023-06-05T12:23:46;29.40;45.80
14786;DHT22;7484;49.906;9.058;2023-06-05T12:26:14;29.50;45.60
14786;DHT22;7484;49.906;9.058;2023-06-05T12:28:41;29.50;45.40
14786;DHT22;7484;49.906;9.058;2023-06-05T12:31:09;29.70;45.70
14786;DHT22;7484;49.906;9.058;2023-06-05T12:33:46;29.90;45.40
14786;DHT22;7484;49.906;9.058;2023-06-05T12:36:13;30.00;44.70
14786;DHT22;7484;49.906;9.058;2023-06-05T12:38:40;30.00;45.50
14786;DHT22;7484;49.906;9.058;2023-06-05T12:41:07;30.20;45.00
14786;DHT22;7484;49.906;9.058;2023-06-05T12:43:34;30.30;44.50
14786;DHT22;7484;49.906;9.058;2023-06-05T12:46:02;30.30;44.10
14786;DHT22;7484;49.906;9.058;2023-06-05T12:48:30;30.50;44.30
14786;DHT22;7484;49.906;9.058;2023-06-05T12:50:57;30.50;44.80
14786;DHT22;7484;49.906;9.058;2023-06-05T12:53:24;30.60;44.80
14786;DHT22;7484;49.906;9.058;2023-06-05T12:55:51;30.40;43.60
14786;DHT22;7484;49.906;9.058;2023-06-05T12:58:18;30.20;44.30
14786;DHT22;7484;49.906;9.058;2023-06-05T13:00:45;30.20;44.40
14786;DHT22;7484;49.906;9.058;2023-06-05T13:03:11;30.20;44.30
14786;DHT22;7484;49.906;9.058;2023-06-05T13:05:39;30.30;44.20
14786;DHT22;7484;49.906;9.058;2023-06-05T13:08:06;30.40;44.50
14786;DHT22;7484;49.906;9.058;2023-06-05T13:10:33;30.50;43.50
14786;DHT22;7484;49.906;9.058;2023-06-05T13:13:00;30.30;43.90
14786;DHT22;7484;49.906;9.058;2023-06-05T13:15:27;30.00;44.20
14786;DHT22;7484;49.906;9.058;2023-06-05T13:17:53;30.10;44.60
14786;DHT22;7484;49.906;9.058;2023-06-05T13:20:20;30.40;44.40
14786;DHT22;7484;49.906;9.058;2023-06-05T13:22:48;30.20;43.80
14786;DHT22;7484;49.906;9.058;2023-06-05T13:25:15;30.20;43.60
14786;DHT22;7484;49.906;9.058;2023-06-05T13:27:42;30.40;43.80
14786;DHT22;7484;49.906;9.058;2023-06-05T13:30:09;30.70;43.40
14786;DHT22;7484;49.906;9.058;2023-06-05T13:32:36;30.80;42.60
14786;DHT22;7484;49.906;9.058;2023-06-05T13:35:04;30.80;41.70
14786;DHT22;7484;49.906;9.058;2023-06-05T13:37:33;31.00;42.10
14786;DHT22;7484;49.906;9.058;2023-06-05T13:40:01;31.10;43.00
14786;DHT22;7484;49.906;9.058;2023-06-05T13:42:30;31.20;43.20
14786;DHT22;7484;49.906;9.058;2023-06-05T13:44:57;31.20;42.10
14786;DHT22;7484;49.906;9.058;2023-06-05T13:47:23;31.20;41.20
14786;DHT22;7484;49.906;9.058;2023-06-05T13:49:50;31.20;41.90
14786;DHT22;7484;49.906;9.058;2023-06-05T13:52:18;31.30;41.40
14786;DHT22;7484;49.906;9.058;2023-06-05T13:54:45;31.40;42.00
14786;DHT22;7484;49.906;9.058;2023-06-05T13:57:13;31.40;42.20
14786;DHT22;7484;49.906;9.058;2023-06-05T13:59:42;31.50;41.90
14786;DHT22;7484;49.906;9.058;2023-06-05T14:02:09;31.80;41.80
14786;DHT22;7484;49.906;9.058;2023-06-05T14:04:36;32.00;41.10
14786;DHT22;7484;49.906;9.058;2023-06-05T14:07:03;32.10;40.90
14786;DHT22;7484;49.906;9.058;2023-06-05T14:09:30;32.10;42.10
14786;DHT22;7484;49.906;9.058;2023-06-05T14:11:57;31.80;41.50
14786;DHT22;7484;49.906;9.058;2023-06-05T14:14:25;31.60;41.40
14786;DHT22;7484;49.906;9.058;2023-06-05T14:16:52;31.60;42.20
14786;DHT22;7484;49.906;9.058;2023-06-05T14:19:18;31.70;42.10
14786;DHT22;7484;49.906;9.058;2023-06-05T14:21:46;31.60;41.30
14786;DHT22;7484;49.906;9.058;2023-06-05T14:24:13;31.50;43.40
14786;DHT22;7484;49.906;9.058;2023-06-05T14:26:40;31.20;41.90
14786;DHT22;7484;49.906;9.058;2023-06-05T14:29:07;30.90;44.30
14786;DHT22;7484;49.906;9.058;2023-06-05T14:31:35;30.60;43.60
14786;DHT22;7484;49.906;9.058;2023-06-05T14:34:03;30.30;44.10
14786;DHT22;7484;49.906;9.058;2023-06-05T14:36:30;30.20;45.20
14786;DHT22;7484;49.906;9.058;2023-06-05T14:38:57;30.00;44.50
14786;DHT22;7484;49.906;9.058;2023-06-05T14:41:24;29.90;44.80
14786;DHT22;7484;49.906;9.058;2023-06-05T14:43:51;29.80;45.70
14786;DHT22;7484;49.906;9.058;2023-06-05T14:46:17;29.70;45.70
14786;DHT22;7484;49.906;9.058;2023-06-05T14:48:45;29.40;46.00
14786;DHT22;7484;49.906;9.058;2023-06-05T14:51:12;29.30;47.30
14786;DHT22;7484;49.906;9.058;2023-06-05T14:53:39;29.10;48.30
14786;DHT22;7484;49.906;9.058;2023-06-05T14:56:06;29.00;47.70
14786;DHT22;7484;49.906;9.058;2023-06-05T14:58:32;29.10;48.00
14786;DHT22;7484;49.906;9.058;2023-06-05T15:00:59;29.00;48.40
14786;DHT22;7484;49.906;9.058;2023-06-05T15:03:26;29.00;47.70
14786;DHT22;7484;49.906;9.058;2023-06-05T15:05:54;28.80;47.30
14786;DHT22;7484;49.906;9.058;2023-06-05T15:08:21;28.70;47.30
14786;DHT22;7484;49.906;9.058;2023-06-05T15:10:49;28.50;47.50
14786;DHT22;7484;49.906;9.058;2023-06-05T15:13:16;28.60;48.10
14786;DHT22;7484;49.906;9.058;2023-06-05T15:15:43;28.80;48.50
14786;DHT22;7484;49.906;9.058;2023-06-05T15:18:09;29.30;48.70
14786;DHT22;7484;49.906;9.058;2023-06-05T15:20:36;29.50;47.50
14786;DHT22;7484;49.906;9.058;2023-06-05T15:23:04;29.60;47.50
14786;DHT22;7484;49.906;9.058;2023-06-05T15:25:31;29.70;46.60
14786;DHT22;7484;49.906;9.058;2023-06-05T15:27:58;29.90;47.00
14786;DHT22;7484;49.906;9.058;2023-06-05T15:30:25;30.00;47.40
14786;DHT22;7484;49.906;9.058;2023-06-05T15:32:52;30.20;47.10
14786;DHT22;7484;49.906;9.058;2023-06-05T15:35:19;30.10;46.30
14786;DHT22;7484;49.906;9.058;2023-06-05T15:37:46;29.80;46.60
14786;DHT22;7484;49.906;9.058;2023-06-05T15:40:14;29.60;47.30
14786;DHT22;7484;49.906;9.058;2023-06-05T15:42:42;29.40;47.50
14786;DHT22;7484;49.906;9.058;2023-06-05T15:45:10;29.40;47.30
14786;DHT22;7484;49.906;9.058;2023-06-05T15:47:38;29.40;46.30
14786;DHT22;7484;49.906;9.058;2023-06-05T15:50:06;29.40;46.60
14786;DHT22;7484;49.906;9.058;2023-06-05T15:52:33;29.70;47.70
14786;DHT22;7484;49.906;9.058;2023-06-05T15:54:59;30.00;47.70